createdAt,value
2024-01-12T00:02:26.087Z,43.25
2024-01-12T00:04:54.368Z,41.33
2024-01-12T00:07:22.631Z,42.15
2024-01-12T00:09:50.847Z,35.13
2024-01-12T00:12:19.123Z,38.42
2024-01-12T00:14:47.289Z,38.58
2024-01-12T00:17:15.534Z,42.10
2024-01-12T00:19:45.075Z,41.95
2024-01-12T00:22:13.246Z,41.85
2024-01-12T00:24:41.537Z,39.67
2024-01-12T00:27:09.765Z,41.53
2024-01-12T00:29:38.079Z,40.10
2024-01-12T00:32:07.342Z,41.33
2024-01-12T00:34:35.951Z,47.10
2024-01-12T00:37:05.836Z,43.33
2024-01-12T00:39:34.338Z,41.35
2024-01-12T00:42:02.531Z,46.63
2024-01-12T00:44:30.760Z,33.92
2024-01-12T00:46:58.877Z,37.83
2024-01-12T00:49:27.507Z,38.58
2024-01-12T00:51:55.668Z,43.05
2024-01-12T00:54:28.208Z,41.42
2024-01-12T00:56:57.512Z,46.08
2024-01-12T00:59:25.945Z,49.72
2024-01-12T01:01:58.309Z,48.70
2024-01-12T01:04:27.965Z,43.05
2024-01-12T01:06:56.888Z,43.58
2024-01-12T01:09:26.607Z,58.78
2024-01-12T01:11:55.199Z,40.03
2024-01-12T01:14:26.475Z,42.05
2024-01-12T01:16:55.482Z,50.22
2024-01-12T01:19:24.809Z,62.10
2024-01-12T01:21:53.218Z,48.65
2024-01-12T01:24:21.496Z,48.15
2024-01-12T01:26:51.133Z,45.13
2024-01-12T01:29:19.398Z,54.05
2024-01-12T01:31:47.554Z,41.67
2024-01-12T01:34:15.967Z,47.55
2024-01-12T01:36:44.433Z,40.40
2024-01-12T01:39:12.659Z,48.40
2024-01-12T01:41:40.989Z,41.35
2024-01-12T01:44:10.708Z,43.38
2024-01-12T01:46:39.043Z,48.20
2024-01-12T01:49:07.430Z,45.20
2024-01-12T01:51:35.915Z,42.60
2024-01-12T01:54:04.722Z,41.33
2024-01-12T01:56:33.115Z,43.42
2024-01-12T01:59:01.352Z,41.72
2024-01-12T02:01:31.007Z,40.97
2024-01-12T02:03:59.773Z,42.88
2024-01-12T02:06:28.448Z,38.25
2024-01-12T02:08:57.614Z,36.58
2024-01-12T02:11:26.054Z,37.42
2024-01-12T02:13:54.338Z,41.75
2024-01-12T02:16:22.729Z,38.90
2024-01-12T02:18:52.451Z,40.35
2024-01-12T02:21:22.084Z,41.28
2024-01-12T02:23:50.317Z,35.55
2024-01-12T02:26:18.728Z,34.92
2024-01-12T02:28:47.499Z,34.65
2024-01-12T02:31:16.552Z,33.30
2024-01-12T02:33:45.017Z,37.00
2024-01-12T02:36:13.420Z,37.75
2024-01-12T02:38:43.252Z,36.15
2024-01-12T02:41:11.629Z,38.80
2024-01-12T02:43:39.917Z,36.75
2024-01-12T02:46:08.338Z,36.03
2024-01-12T02:48:36.559Z,42.67
2024-01-12T02:51:05.158Z,39.33
2024-01-12T02:53:33.799Z,41.72
2024-01-12T02:56:03.584Z,40.42
2024-01-12T02:58:31.750Z,33.58
2024-01-12T03:01:01.139Z,37.17
2024-01-12T03:03:29.454Z,40.08
2024-01-12T03:05:57.866Z,40.47
2024-01-12T03:08:26.075Z,39.92
2024-01-12T03:10:54.287Z,39.95
2024-01-12T03:13:23.913Z,38.90
2024-01-12T03:15:52.091Z,39.78
2024-01-12T03:18:20.359Z,36.85
2024-01-12T03:20:48.682Z,39.20
2024-01-12T03:23:17.112Z,35.42
2024-01-12T03:25:45.368Z,36.85
2024-01-12T03:28:13.566Z,36.70
2024-01-12T03:30:43.139Z,36.28
2024-01-12T03:33:11.491Z,39.65
2024-01-12T03:35:39.857Z,32.35
2024-01-12T03:38:08.028Z,36.97
2024-01-12T03:40:36.184Z,38.08
2024-01-12T03:43:04.444Z,37.67
2024-01-12T03:45:32.974Z,40.03
2024-01-12T03:48:02.826Z,34.83
2024-01-12T03:50:31.210Z,34.47
2024-01-12T03:52:59.598Z,31.27
2024-01-12T03:55:28.095Z,36.03
2024-01-12T03:57:56.366Z,38.30
2024-01-12T04:00:24.683Z,36.90
2024-01-12T04:02:52.870Z,37.60
2024-01-12T04:05:22.609Z,35.58
2024-01-12T04:07:51.056Z,34.95
2024-01-12T04:10:19.492Z,40.63
2024-01-12T04:12:47.734Z,35.53
2024-01-12T04:15:16.052Z,29.98
2024-01-12T04:17:44.249Z,38.67
2024-01-12T04:20:13.430Z,38.25
2024-01-12T04:22:42.994Z,38.53
2024-01-12T04:25:11.755Z,37.05
2024-01-12T04:27:39.911Z,31.58
2024-01-12T04:30:10.327Z,37.55
2024-01-12T04:32:39.225Z,33.70
2024-01-12T04:35:08.187Z,34.42
2024-01-12T04:37:36.345Z,30.17
2024-01-12T04:40:07.241Z,31.17
2024-01-12T04:42:35.695Z,38.65
2024-01-12T04:45:04.160Z,31.52
2024-01-12T04:47:33.563Z,30.65
2024-01-12T04:50:01.855Z,33.00
2024-01-12T04:52:30.044Z,35.03
2024-01-12T04:54:58.262Z,31.88
2024-01-12T04:57:27.904Z,36.58
2024-01-12T04:59:56.255Z,38.70
2024-01-12T05:02:24.633Z,32.33
2024-01-12T05:04:52.794Z,35.63
2024-01-12T05:07:20.943Z,29.92
2024-01-12T05:09:49.128Z,33.00
2024-01-12T05:12:17.472Z,31.40
2024-01-12T05:14:47.815Z,30.95
2024-01-12T05:17:16.457Z,31.63
2024-01-12T05:19:44.726Z,34.75
2024-01-12T05:22:14.607Z,37.42
2024-01-12T05:24:42.928Z,28.92
2024-01-12T05:27:11.115Z,26.92
2024-01-12T05:29:40.085Z,28.25
2024-01-12T05:32:09.817Z,34.55
2024-01-12T05:34:37.058Z,27.40
2024-01-12T05:37:05.715Z,26.55
2024-01-12T05:39:33.884Z,32.60
2024-01-12T05:42:02.199Z,27.35
2024-01-12T05:44:30.844Z,32.20
2024-01-12T05:46:59.036Z,27.90
2024-01-12T05:49:28.592Z,24.48
2024-01-12T05:51:57.704Z,34.83
2024-01-12T05:54:26.051Z,38.65
2024-01-12T05:56:54.583Z,36.30
2024-01-12T05:59:23.122Z,34.47
2024-01-12T06:01:51.344Z,34.08
2024-01-12T06:04:19.633Z,37.78
2024-01-12T06:06:49.972Z,42.17
2024-01-12T06:09:18.989Z,33.15
2024-01-12T06:11:47.765Z,42.00
2024-01-12T06:14:17.821Z,33.17
2024-01-12T06:16:46.118Z,34.92
2024-01-12T06:19:14.536Z,34.17
2024-01-12T06:21:42.752Z,30.83
2024-01-12T06:24:12.991Z,31.58
2024-01-12T06:26:43.930Z,37.15
2024-01-12T06:29:12.229Z,38.25
2024-01-12T06:31:40.371Z,41.67
2024-01-12T06:34:08.639Z,43.45
2024-01-12T06:36:36.906Z,37.75
2024-01-12T06:39:06.486Z,34.60
2024-01-12T06:41:36.249Z,38.63
2024-01-12T06:44:04.595Z,34.50
2024-01-12T06:46:32.757Z,38.00
2024-01-12T06:49:01.026Z,37.97
2024-01-12T06:51:29.282Z,36.92
2024-01-12T06:53:57.550Z,35.35
2024-01-12T06:56:25.989Z,32.90
2024-01-12T06:58:55.664Z,34.65
2024-01-12T07:01:23.869Z,34.80
2024-01-12T07:03:53.286Z,36.97
2024-01-12T07:06:21.696Z,33.83
2024-01-12T07:08:50.069Z,31.63
2024-01-12T07:11:18.516Z,41.85
2024-01-12T07:13:46.789Z,35.70
2024-01-12T07:16:16.491Z,39.80
2024-01-12T07:18:44.826Z,40.13
2024-01-12T07:21:13.121Z,42.15
2024-01-12T07:23:41.456Z,36.65
2024-01-12T07:26:09.700Z,34.42
2024-01-12T07:28:38.161Z,33.03
2024-01-12T07:31:06.767Z,46.85
2024-01-12T07:33:36.683Z,41.33
2024-01-12T07:36:05.488Z,34.88
2024-01-12T07:38:33.731Z,37.50
2024-01-12T07:41:02.062Z,38.58
2024-01-12T07:43:31.566Z,32.42
2024-01-12T07:46:00.344Z,37.05
2024-01-12T07:48:28.721Z,33.25
2024-01-12T07:50:58.564Z,30.60
2024-01-12T07:53:26.857Z,42.03
2024-01-12T07:55:55.317Z,37.67
2024-01-12T07:58:23.543Z,33.42
2024-01-12T08:00:51.840Z,34.28
2024-01-12T08:03:20.161Z,34.28
2024-01-12T08:05:48.489Z,34.47
2024-01-12T08:08:18.401Z,35.90
2024-01-12T08:10:47.980Z,41.13
2024-01-12T08:13:19.043Z,48.28
2024-01-12T08:15:47.659Z,46.28
2024-01-12T08:18:16.191Z,57.22
2024-01-12T08:20:44.833Z,71.05
2024-01-12T08:23:13.193Z,85.30
2024-01-12T08:25:42.844Z,65.50
2024-01-12T08:28:11.054Z,62.08
2024-01-12T08:30:39.478Z,66.40
2024-01-12T08:33:08.234Z,63.92
2024-01-12T08:35:37.188Z,47.85
2024-01-12T08:38:05.890Z,39.83
2024-01-12T08:40:34.106Z,39.60
2024-01-12T08:43:03.707Z,43.65
2024-01-12T08:45:31.993Z,42.33
2024-01-12T08:48:00.883Z,39.30
2024-01-12T08:50:29.610Z,33.13
2024-01-12T08:52:58.079Z,27.55
2024-01-12T08:55:26.325Z,35.53
2024-01-12T08:57:54.953Z,39.65
2024-01-12T09:00:24.753Z,36.22
2024-01-12T09:02:53.774Z,35.45
2024-01-12T09:05:23.770Z,33.55
2024-01-12T09:07:52.771Z,35.80
2024-01-12T09:10:21.500Z,37.45
2024-01-12T09:12:50.001Z,31.23
2024-01-12T09:15:18.613Z,34.33
2024-01-12T09:17:48.932Z,31.75
2024-01-12T09:20:18.797Z,30.67
2024-01-12T09:22:47.516Z,32.35
2024-01-12T09:25:16.366Z,32.60
2024-01-12T09:27:45.011Z,33.72
2024-01-12T09:30:15.029Z,31.67
2024-01-12T09:32:44.158Z,35.28
2024-01-12T09:35:13.980Z,30.65
2024-01-12T09:37:42.218Z,35.17
2024-01-12T09:40:11.979Z,34.25
2024-01-12T09:42:45.265Z,34.15
2024-01-12T09:45:21.392Z,38.25
2024-01-12T09:47:53.037Z,32.35
2024-01-12T09:50:24.295Z,37.92
2024-01-12T09:52:53.514Z,33.75
2024-01-12T09:55:22.178Z,33.92
2024-01-12T09:57:50.865Z,32.92
2024-01-12T10:00:24.662Z,41.75
2024-01-12T10:02:59.667Z,35.25
2024-01-12T10:05:29.719Z,38.13
2024-01-12T10:07:58.476Z,33.22
2024-01-12T10:10:28.864Z,35.53
2024-01-12T10:12:57.758Z,35.10
2024-01-12T10:15:27.895Z,31.43
2024-01-12T10:17:56.580Z,33.57
2024-01-12T10:20:25.342Z,30.83
2024-01-12T10:23:05.190Z,32.13
2024-01-12T10:25:33.724Z,31.60
2024-01-12T10:28:02.354Z,35.20
2024-01-12T10:30:34.477Z,31.50
2024-01-12T10:33:03.956Z,35.37
2024-01-12T10:35:32.828Z,35.30
2024-01-12T10:38:07.364Z,36.27
2024-01-12T10:40:36.547Z,35.23
2024-01-12T10:43:07.574Z,33.43
2024-01-12T10:45:40.924Z,33.70
2024-01-12T10:48:13.524Z,35.03
2024-01-12T10:50:45.260Z,32.80
2024-01-12T10:53:23.172Z,41.10
2024-01-12T10:55:59.895Z,27.80
2024-01-12T10:58:30.312Z,34.90
2024-01-12T11:00:59.151Z,32.87
2024-01-12T11:03:29.273Z,34.67
2024-01-12T11:05:59.377Z,32.50
2024-01-12T11:08:31.299Z,29.93
2024-01-12T11:11:02.025Z,34.40
2024-01-12T11:13:31.012Z,32.90
2024-01-12T11:16:00.744Z,31.70
2024-01-12T11:18:31.511Z,33.13
2024-01-12T11:21:04.286Z,33.33
2024-01-12T11:23:41.725Z,36.10
2024-01-12T11:26:11.312Z,37.40
2024-01-12T11:28:40.152Z,35.30
2024-01-12T11:31:08.948Z,33.43
2024-01-12T11:33:43.443Z,34.10
2024-01-12T11:36:18.692Z,31.70
2024-01-12T11:38:50.056Z,35.90
2024-01-12T11:41:18.988Z,35.60
2024-01-12T11:43:51.614Z,38.83
2024-01-12T11:46:20.300Z,32.40
2024-01-12T11:48:49.758Z,32.13
2024-01-12T11:51:23.250Z,45.23
2024-01-12T11:53:54.480Z,34.47
2024-01-12T11:56:23.944Z,33.07
2024-01-12T11:58:53.618Z,39.97
2024-01-12T12:01:22.968Z,40.90
2024-01-12T12:03:51.599Z,34.60
2024-01-12T12:06:21.093Z,38.77
2024-01-12T12:08:54.615Z,38.93
2024-01-12T12:11:25.259Z,36.03
2024-01-12T12:13:56.040Z,34.00
2024-01-12T12:16:24.902Z,36.63
2024-01-12T12:18:54.316Z,32.38
2024-01-12T12:21:23.402Z,58.60
2024-01-12T12:23:53.187Z,37.47
2024-01-12T12:26:23.884Z,36.33
2024-01-12T12:28:52.915Z,35.93
2024-01-12T12:31:23.623Z,34.03
2024-01-12T12:33:52.572Z,40.53
2024-01-12T12:36:22.682Z,42.03
2024-01-12T12:38:51.532Z,40.53
2024-01-12T12:41:20.472Z,37.10
2024-01-12T12:43:51.676Z,38.13
2024-01-12T12:46:20.768Z,40.87
2024-01-12T12:48:52.627Z,38.08
2024-01-12T12:51:22.172Z,39.13
2024-01-12T12:53:51.949Z,37.47
2024-01-12T12:56:20.755Z,43.53
2024-01-12T12:58:52.398Z,43.20
2024-01-12T13:01:21.301Z,44.97
2024-01-12T13:03:50.227Z,46.50
2024-01-12T13:06:19.292Z,38.00
2024-01-12T13:08:48.331Z,43.00
2024-01-12T13:11:17.460Z,46.25
2024-01-12T13:13:46.297Z,43.43
2024-01-12T13:16:17.299Z,41.25
2024-01-12T13:18:46.349Z,41.43
2024-01-12T13:21:15.698Z,40.27
2024-01-12T13:23:45.322Z,37.83
2024-01-12T13:26:14.230Z,36.97
2024-01-12T13:28:43.363Z,42.17
2024-01-12T13:31:15.387Z,40.80
2024-01-12T13:33:46.219Z,43.25
2024-01-12T13:36:15.207Z,39.95
2024-01-12T13:38:44.597Z,41.30
2024-01-12T13:41:13.718Z,47.07
2024-01-12T13:43:42.912Z,49.43
2024-01-12T13:46:11.875Z,36.93
2024-01-12T13:48:40.942Z,40.90
2024-01-12T13:51:11.607Z,37.80
2024-01-12T13:53:40.434Z,39.53
2024-01-12T13:56:09.386Z,44.58
2024-01-12T13:58:38.704Z,44.45
2024-01-12T14:01:07.455Z,37.40
2024-01-12T14:03:36.994Z,38.70
2024-01-12T14:06:06.516Z,41.20
2024-01-12T14:08:38.108Z,40.20
2024-01-12T14:11:07.487Z,40.00
2024-01-12T14:13:36.489Z,41.63
2024-01-12T14:16:05.482Z,42.30
2024-01-12T14:18:34.910Z,40.70
2024-01-12T14:21:04.126Z,33.22
2024-01-12T14:23:33.012Z,39.72
2024-01-12T14:26:04.419Z,39.25
2024-01-12T14:28:33.776Z,38.67
2024-01-12T14:31:04.765Z,42.22
2024-01-12T14:33:35.444Z,45.63
2024-01-12T14:36:05.586Z,42.40
2024-01-12T14:38:35.256Z,42.25
2024-01-12T14:41:06.015Z,41.85
2024-01-12T14:43:34.838Z,47.10
2024-01-12T14:46:04.724Z,37.72
2024-01-12T14:48:34.592Z,45.75
2024-01-12T14:51:04.683Z,38.92
2024-01-12T14:53:38.556Z,39.53
2024-01-12T14:56:10.580Z,38.55
2024-01-12T14:58:39.503Z,38.72
2024-01-12T15:01:08.618Z,42.17
2024-01-12T15:03:37.948Z,42.60
2024-01-12T15:06:08.527Z,39.55
2024-01-12T15:08:38.608Z,42.13
2024-01-12T15:11:09.151Z,43.08
2024-01-12T15:13:38.211Z,40.05
2024-01-12T15:16:08.336Z,42.05
2024-01-12T15:18:39.844Z,38.17
2024-01-12T15:21:09.620Z,38.58
2024-01-12T15:23:38.735Z,46.90
2024-01-12T15:26:11.842Z,42.80
2024-01-12T15:28:41.738Z,38.53
2024-01-12T15:31:10.576Z,41.20
2024-01-12T15:33:39.580Z,42.78
2024-01-12T15:36:08.840Z,46.00
2024-01-12T15:38:37.383Z,42.72
2024-01-12T15:41:06.126Z,35.40
2024-01-12T15:43:35.972Z,46.88
2024-01-12T15:46:04.373Z,41.10
2024-01-12T15:48:33.982Z,44.30
2024-01-12T15:51:03.655Z,41.88
2024-01-12T15:53:33.490Z,47.50
2024-01-12T15:56:02.273Z,39.97
2024-01-12T15:58:30.858Z,47.20
2024-01-12T16:01:00.742Z,41.55
2024-01-12T16:03:29.801Z,41.70
2024-01-12T16:05:58.725Z,41.28
2024-01-12T16:08:27.528Z,40.30
2024-01-12T16:10:56.181Z,40.80
2024-01-12T16:13:25.390Z,45.13
2024-01-12T16:15:54.343Z,42.10
2024-01-12T16:18:24.900Z,37.75
2024-01-12T16:20:53.774Z,38.05
2024-01-12T16:23:23.163Z,42.08
2024-01-12T16:25:51.898Z,52.40
2024-01-12T16:28:20.553Z,42.67
2024-01-12T16:30:50.001Z,40.88
2024-01-12T16:33:19.168Z,40.72
2024-01-12T16:35:50.036Z,41.13
2024-01-12T16:38:19.557Z,44.33
2024-01-12T16:40:48.602Z,40.55
2024-01-12T16:43:17.691Z,42.45
2024-01-12T16:45:46.662Z,42.85
2024-01-12T16:48:15.642Z,42.65
2024-01-12T16:50:44.313Z,43.08
2024-01-12T16:53:15.919Z,40.67
2024-01-12T16:55:44.264Z,49.97
2024-01-12T16:58:13.220Z,45.15
2024-01-12T17:00:41.564Z,40.78
2024-01-12T17:03:10.287Z,43.35
2024-01-12T17:05:39.713Z,40.10
2024-01-12T17:08:08.391Z,39.35
2024-01-12T17:10:38.701Z,34.83
2024-01-12T17:13:06.973Z,43.28
2024-01-12T17:15:35.525Z,36.58
2024-01-12T17:18:10.240Z,44.05
2024-01-12T17:20:45.015Z,40.88
2024-01-12T17:23:13.581Z,41.63
2024-01-12T17:25:43.780Z,34.00
2024-01-12T17:28:12.372Z,40.45
2024-01-12T17:30:44.573Z,33.05
2024-01-12T17:33:13.836Z,40.20
2024-01-12T17:35:42.219Z,42.85
2024-01-12T17:38:10.940Z,42.05
2024-01-12T17:40:39.626Z,36.63
2024-01-12T17:43:09.886Z,38.80
2024-01-12T17:45:39.017Z,40.20
2024-01-12T17:48:07.995Z,46.60
2024-01-12T17:50:36.463Z,44.53
2024-01-12T17:53:05.049Z,37.95
2024-01-12T17:55:33.435Z,37.35
2024-01-12T17:58:02.015Z,39.75
2024-01-12T18:00:31.606Z,43.80
2024-01-12T18:03:00.358Z,41.22
2024-01-12T18:05:29.511Z,42.75
2024-01-12T18:07:58.689Z,38.30
2024-01-12T18:10:28.621Z,38.88
2024-01-12T18:12:57.280Z,43.78
2024-01-12T18:15:25.560Z,41.60
2024-01-12T18:17:55.599Z,39.70
2024-01-12T18:20:24.419Z,37.63
2024-01-12T18:22:52.836Z,46.05
2024-01-12T18:25:21.421Z,47.58
2024-01-12T18:27:49.832Z,39.08
2024-01-12T18:30:18.301Z,37.20
2024-01-12T18:32:47.935Z,43.70
2024-01-12T18:35:18.128Z,37.67
2024-01-12T18:37:46.531Z,38.92
2024-01-12T18:40:15.041Z,37.40
2024-01-12T18:42:43.808Z,40.38
2024-01-12T18:45:12.653Z,44.85
2024-01-12T18:47:41.292Z,39.65
2024-01-12T18:50:11.348Z,38.10
2024-01-12T18:52:44.592Z,32.72
2024-01-12T18:55:13.289Z,39.90
2024-01-12T18:57:41.555Z,40.00
2024-01-12T19:00:11.084Z,37.33
2024-01-12T19:02:39.395Z,37.60
2024-01-12T19:05:08.112Z,33.78
2024-01-12T19:07:36.494Z,44.28
2024-01-12T19:10:07.547Z,39.58
2024-01-12T19:12:35.795Z,36.10
2024-01-12T19:15:04.929Z,40.95
2024-01-12T19:17:33.887Z,40.63
2024-01-12T19:20:02.812Z,39.85
2024-01-12T19:22:32.068Z,37.80
2024-01-12T19:25:00.391Z,40.80
2024-01-12T19:27:30.495Z,43.15
2024-01-12T19:29:58.742Z,37.63
2024-01-12T19:32:28.480Z,42.20
2024-01-12T19:35:00.283Z,37.40
2024-01-12T19:37:29.336Z,38.80
2024-01-12T19:39:58.201Z,37.13
2024-01-12T19:42:26.856Z,34.33
2024-01-12T19:44:56.867Z,41.35
2024-01-12T19:47:25.424Z,42.58
2024-01-12T19:49:53.876Z,35.25
2024-01-12T19:52:22.452Z,37.95
2024-01-12T19:54:51.458Z,39.33
2024-01-12T19:57:20.356Z,34.78
2024-01-12T19:59:49.449Z,39.17
2024-01-12T20:02:19.515Z,42.75
2024-01-12T20:04:48.878Z,48.33
2024-01-12T20:07:18.230Z,48.35
2024-01-12T20:09:47.046Z,40.28
2024-01-12T20:12:15.532Z,44.92
2024-01-12T20:14:45.921Z,42.35
2024-01-12T20:17:14.664Z,40.67
2024-01-12T20:19:45.572Z,42.50
2024-01-12T20:22:14.083Z,38.47
2024-01-12T20:24:42.532Z,44.92
2024-01-12T20:27:11.369Z,50.30
2024-01-12T20:29:39.991Z,45.95
2024-01-12T20:32:08.845Z,40.92
2024-01-12T20:34:37.982Z,43.58
2024-01-12T20:37:09.285Z,46.28
2024-01-12T20:39:38.019Z,50.72
2024-01-12T20:42:11.461Z,48.88
2024-01-12T20:44:40.623Z,47.47
2024-01-12T20:47:08.926Z,45.92
2024-01-12T20:49:42.334Z,38.88
2024-01-12T20:52:12.126Z,45.38
2024-01-12T20:54:40.860Z,43.92
2024-01-12T20:57:09.224Z,48.60
2024-01-12T20:59:37.652Z,39.75
2024-01-12T21:02:06.342Z,46.33
2024-01-12T21:04:34.734Z,41.30
2024-01-12T21:07:02.941Z,45.80
2024-01-12T21:09:33.081Z,39.88
2024-01-12T21:12:01.440Z,42.85
2024-01-12T21:14:30.095Z,43.28
2024-01-12T21:16:58.317Z,39.58
2024-01-12T21:19:26.931Z,39.75
2024-01-12T21:21:55.541Z,47.78
2024-01-12T21:24:23.918Z,36.58
2024-01-12T21:26:53.758Z,34.97
2024-01-12T21:29:22.157Z,50.20
2024-01-12T21:31:50.610Z,43.70
2024-01-12T21:34:19.012Z,42.45
2024-01-12T21:36:47.371Z,43.42
2024-01-12T21:39:16.889Z,38.10
2024-01-12T21:41:45.410Z,36.97
2024-01-12T21:44:15.755Z,39.00
2024-01-12T21:46:44.455Z,39.35
2024-01-12T21:49:12.845Z,41.40
2024-01-12T21:51:41.153Z,43.58
2024-01-12T21:54:10.011Z,46.92
2024-01-12T21:56:38.446Z,41.53
2024-01-12T21:59:06.886Z,42.35
2024-01-12T22:01:36.517Z,37.65
2024-01-12T22:04:05.265Z,38.28
2024-01-12T22:06:35.967Z,40.63
2024-01-12T22:09:07.099Z,43.13
2024-01-12T22:11:35.304Z,45.92
2024-01-12T22:14:04.057Z,42.40
2024-01-12T22:16:32.339Z,44.50
2024-01-12T22:19:02.227Z,46.45
2024-01-12T22:21:35.968Z,33.95
2024-01-12T22:24:04.533Z,40.13
2024-01-12T22:26:33.020Z,44.92
2024-01-12T22:29:01.359Z,39.13
2024-01-12T22:31:29.845Z,40.75
2024-01-12T22:33:58.247Z,38.58
2024-01-12T22:36:30.426Z,38.40
2024-01-12T22:38:58.716Z,36.95
2024-01-12T22:41:27.074Z,37.47
2024-01-12T22:43:55.505Z,35.40
2024-01-12T22:46:23.949Z,40.90
2024-01-12T22:48:52.481Z,40.05
2024-01-12T22:51:20.794Z,39.70
2024-01-12T22:53:51.121Z,40.85
2024-01-12T22:56:19.318Z,39.40
2024-01-12T22:58:47.509Z,38.40
2024-01-12T23:01:16.173Z,36.80
2024-01-12T23:03:44.471Z,39.03
2024-01-12T23:06:13.490Z,39.35
2024-01-12T23:08:41.901Z,35.72
2024-01-12T23:11:11.879Z,40.65
2024-01-12T23:13:40.289Z,40.88
2024-01-12T23:16:08.926Z,37.97
2024-01-12T23:18:37.341Z,38.30
2024-01-12T23:21:06.843Z,45.67
2024-01-12T23:23:35.141Z,37.03
2024-01-12T23:26:03.470Z,36.42
2024-01-12T23:28:33.200Z,35.92
2024-01-12T23:31:01.635Z,39.92
2024-01-12T23:33:30.103Z,39.25
2024-01-12T23:36:00.376Z,30.50
2024-01-12T23:38:34.312Z,37.95
2024-01-12T23:41:04.062Z,31.50
2024-01-12T23:43:33.903Z,34.40
2024-01-12T23:46:02.282Z,42.88
2024-01-12T23:48:36.848Z,36.45
2024-01-12T23:51:09.188Z,38.65
2024-01-12T23:53:38.021Z,38.17
2024-01-12T23:56:07.125Z,40.70
2024-01-12T23:58:38.861Z,36.85
